createdAt,value
2018-06-20T00:00:04.405Z,36.6
2018-06-20T00:00:54.491Z,36.6
2018-06-20T00:01:44.871Z,36.6
2018-06-20T00:02:34.642Z,36.6
2018-06-20T00:03:24.945Z,36.6
2018-06-20T00:04:13.896Z,36.6
2018-06-20T00:05:04.324Z,36.6
2018-06-20T00:05:54.603Z,36.6
2018-06-20T00:06:45.041Z,36.6
2018-06-20T00:07:35.049Z,36.6
2018-06-20T00:08:24.506Z,36.6
2018-06-20T00:09:14.872Z,36.6
2018-06-20T00:10:19.557Z,36.6
2018-06-20T00:10:55.616Z,36.6
2018-06-20T00:11:45.322Z,36.6
2018-06-20T00:12:35.403Z,36.6
2018-06-20T00:13:25.755Z,36.6
2018-06-20T00:14:15.256Z,36.6
2018-06-20T00:15:05.375Z,36.5
2018-06-20T00:15:55.907Z,36.6
2018-06-20T00:16:45.452Z,36.5
2018-06-20T00:17:35.820Z,36.5
2018-06-20T00:18:25.847Z,36.5
2018-06-20T00:19:15.615Z,36.5
2018-06-20T00:20:05.710Z,36.5
2018-06-20T00:20:56.040Z,36.5
2018-06-20T00:21:45.058Z,36.5
2018-06-20T00:22:36.131Z,36.5
2018-06-20T00:23:26.211Z,36.5
2018-06-20T00:24:16.291Z,36.5
2018-06-20T00:25:06.212Z,36.5
2018-06-20T00:25:56.147Z,36.5
2018-06-20T00:26:46.751Z,36.4
2018-06-20T00:27:35.418Z,36.4
2018-06-20T00:28:25.754Z,36.5
2018-06-20T00:29:16.991Z,36.4
2018-06-20T00:30:06.777Z,36.4
2018-06-20T00:30:56.234Z,36.4
2018-06-20T00:31:46.304Z,36.4
2018-06-20T00:32:35.899Z,36.4
2018-06-20T00:33:26.991Z,36.4
2018-06-20T00:34:17.065Z,36.4
2018-06-20T00:35:06.874Z,36.4
2018-06-20T00:35:57.215Z,36.4
2018-06-20T00:36:47.521Z,36.4
2018-06-20T00:37:37.040Z,36.4
2018-06-20T00:38:27.371Z,36.4
2018-06-20T00:39:17.474Z,36.4
2018-06-20T00:40:07.569Z,36.4
2018-06-20T00:40:57.229Z,36.4
2018-06-20T00:41:47.604Z,36.4
2018-06-20T00:42:37.681Z,36.4
2018-06-20T00:43:28.069Z,36.4
2018-06-20T00:44:17.842Z,36.4
2018-06-20T00:45:07.936Z,36.3
2018-06-20T00:45:57.947Z,36.4
2018-06-20T00:46:47.995Z,36.4
2018-06-20T00:47:38.356Z,36.4
2018-06-20T00:48:27.871Z,36.3
2018-06-20T00:49:18.190Z,36.3
2018-06-20T00:50:08.071Z,36.4
2018-06-20T00:50:58.041Z,36.3
2018-06-20T00:51:48.446Z,36.3
2018-06-20T00:52:38.289Z,36.3
2018-06-20T00:53:28.239Z,36.3
2018-06-20T00:54:18.043Z,36.3
2018-06-20T00:55:07.823Z,36.3
2018-06-20T00:55:58.701Z,36.3
2018-06-20T00:56:48.201Z,36.3
2018-06-20T00:57:38.536Z,36.3
2018-06-20T00:58:28.879Z,36.3
2018-06-20T00:59:18.950Z,36.3
2018-06-20T01:00:09.024Z,36.3
2018-06-20T01:00:58.782Z,36.3
2018-06-20T01:01:48.650Z,36.3
2018-06-20T01:02:39.195Z,36.3
2018-06-20T01:03:28.990Z,36.3
2018-06-20T01:04:19.610Z,36.3
2018-06-20T01:05:08.815Z,36.3
2018-06-20T01:05:59.720Z,36.3
2018-06-20T01:06:48.772Z,36.2
2018-06-20T01:07:39.681Z,36.2
2018-06-20T01:08:29.632Z,36.3
2018-06-20T01:09:19.984Z,36.3
2018-06-20T01:10:09.477Z,36.2
2018-06-20T01:10:59.582Z,36.2
2018-06-20T01:11:52.658Z,36.2
2018-06-20T01:12:39.967Z,36.2
2018-06-20T01:13:29.766Z,36.2
2018-06-20T01:14:20.089Z,36.2
2018-06-20T01:15:09.869Z,36.2
2018-06-20T01:16:00.521Z,36.2
2018-06-20T01:16:50.016Z,36.2
2018-06-20T01:17:40.605Z,36.2
2018-06-20T01:18:45.318Z,36.2
2018-06-20T01:19:20.468Z,36.2
2018-06-20T01:20:10.251Z,36.2
2018-06-20T01:21:00.828Z,36.1
2018-06-20T01:21:50.933Z,36.1
2018-06-20T01:22:41.053Z,36.1
2018-06-20T01:23:30.815Z,36.1
2018-06-20T01:24:21.116Z,36.1
2018-06-20T01:25:11.198Z,36.1
2018-06-20T01:26:01.260Z,36.1
2018-06-20T01:26:51.332Z,36.1
2018-06-20T01:27:40.253Z,36.1
2018-06-20T01:28:30.611Z,36.1
2018-06-20T01:29:20.393Z,36.1
2018-06-20T01:30:11.317Z,36.1
2018-06-20T01:31:00.806Z,36.1
2018-06-20T01:31:51.735Z,36.1
2018-06-20T01:32:41.793Z,36.1
2018-06-20T01:33:31.586Z,36.1
2018-06-20T01:34:21.941Z,36.1
2018-06-20T01:35:11.425Z,36.1
2018-06-20T01:36:02.046Z,36.1
2018-06-20T01:36:51.863Z,36.1
2018-06-20T01:37:41.338Z,36.1
2018-06-20T01:38:31.769Z,36.1
2018-06-20T01:39:21.703Z,36.1
2018-06-20T01:40:11.773Z,36.1
2018-06-20T01:41:02.159Z,36.1
2018-06-20T01:41:52.562Z,36.1
2018-06-20T01:42:41.766Z,36
2018-06-20T01:43:32.356Z,36.1
2018-06-20T01:44:22.386Z,36
2018-06-20T01:45:12.719Z,36
2018-06-20T01:46:02.838Z,36.1
2018-06-20T01:46:52.326Z,36
2018-06-20T01:47:42.335Z,36
2018-06-20T01:48:32.501Z,36
2018-06-20T01:49:23.057Z,36
2018-06-20T01:50:12.598Z,36
2018-06-20T01:51:02.622Z,36
2018-06-20T01:51:52.679Z,36
2018-06-20T01:52:42.799Z,36
2018-06-20T01:53:33.152Z,36
2018-06-20T01:54:23.122Z,36
2018-06-20T01:55:12.687Z,35.9
2018-06-20T01:56:03.665Z,35.9
2018-06-20T01:56:53.379Z,35.9
2018-06-20T01:57:43.215Z,35.9
2018-06-20T01:58:33.745Z,35.9
2018-06-20T01:59:21.856Z,35.9
2018-06-20T02:00:13.335Z,35.9
2018-06-20T02:01:03.946Z,35.9
2018-06-20T02:01:53.978Z,35.9
2018-06-20T02:02:43.509Z,35.9
2018-06-20T02:03:33.567Z,35.9
2018-06-20T02:04:23.382Z,35.9
2018-06-20T02:05:12.855Z,35.9
2018-06-20T02:06:03.532Z,35.9
2018-06-20T02:06:53.575Z,35.9
2018-06-20T02:07:44.464Z,35.9
2018-06-20T02:08:33.964Z,35.9
2018-06-20T02:09:24.343Z,35.9
2018-06-20T02:10:14.166Z,35.9
2018-06-20T02:11:03.863Z,35.9
2018-06-20T02:11:53.974Z,35.9
2018-06-20T02:12:44.594Z,35.9
2018-06-20T02:13:34.032Z,35.9
2018-06-20T02:14:24.111Z,35.9
2018-06-20T02:15:14.772Z,35.8
2018-06-20T02:16:05.078Z,35.9
2018-06-20T02:16:54.872Z,35.8
2018-06-20T02:17:44.931Z,35.8
2018-06-20T02:18:35.317Z,35.8
2018-06-20T02:19:25.100Z,35.8
2018-06-20T02:20:15.182Z,35.8
2018-06-20T02:21:05.485Z,35.8
2018-06-20T02:21:55.306Z,35.8
2018-06-20T02:22:45.337Z,35.8
2018-06-20T02:23:35.667Z,35.8
2018-06-20T02:24:25.182Z,35.8
2018-06-20T02:25:15.473Z,35.8
2018-06-20T02:26:05.022Z,35.8
2018-06-20T02:26:55.900Z,35.8
2018-06-20T02:27:45.711Z,35.8
2018-06-20T02:28:36.003Z,35.8
2018-06-20T02:29:25.780Z,35.8
2018-06-20T02:30:15.663Z,35.8
2018-06-20T02:31:05.428Z,35.8
2018-06-20T02:31:56.010Z,35.8
2018-06-20T02:32:46.081Z,35.8
2018-06-20T02:33:36.149Z,35.8
2018-06-20T02:34:25.904Z,35.8
2018-06-20T02:35:16.048Z,35.8
2018-06-20T02:36:05.781Z,35.8
2018-06-20T02:36:55.858Z,35.8
2018-06-20T02:37:45.628Z,35.7
2018-06-20T02:38:36.500Z,35.7
2018-06-20T02:39:26.671Z,35.8
2018-06-20T02:40:16.397Z,35.7
2018-06-20T02:41:06.713Z,35.7
2018-06-20T02:41:56.863Z,35.7
2018-06-20T02:42:46.619Z,35.7
2018-06-20T02:43:36.371Z,35.7
2018-06-20T02:44:26.481Z,35.7
2018-06-20T02:45:16.803Z,35.7
2018-06-20T02:46:07.136Z,35.7
2018-06-20T02:46:57.513Z,35.7
2018-06-20T02:47:47.307Z,35.7
2018-06-20T02:48:37.024Z,35.7
2018-06-20T02:49:26.904Z,35.7
2018-06-20T02:50:17.445Z,35.7
2018-06-20T02:51:06.771Z,35.6
2018-06-20T02:51:57.070Z,35.6
2018-06-20T02:52:47.990Z,35.6
2018-06-20T02:53:37.521Z,35.6
2018-06-20T02:54:27.514Z,35.6
2018-06-20T02:55:17.371Z,35.6
2018-06-20T02:56:07.325Z,35.6
2018-06-20T02:56:57.604Z,35.6
2018-06-20T02:57:47.427Z,35.6
2018-06-20T02:58:37.750Z,35.6
2018-06-20T02:59:27.841Z,35.6
2018-06-20T03:00:17.933Z,35.6
2018-06-20T03:01:08.621Z,35.6
2018-06-20T03:01:58.004Z,35.6
2018-06-20T03:02:48.345Z,35.6
2018-06-20T03:03:38.708Z,35.6
2018-06-20T03:04:27.365Z,35.6
2018-06-20T03:05:18.033Z,35.6
2018-06-20T03:06:08.696Z,35.6
2018-06-20T03:06:58.700Z,35.5
2018-06-20T03:07:48.759Z,35.6
2018-06-20T03:08:38.526Z,35.6
2018-06-20T03:09:28.093Z,35.6
2018-06-20T03:10:19.299Z,35.5
2018-06-20T03:11:09.303Z,35.5
2018-06-20T03:11:58.514Z,35.5
2018-06-20T03:12:49.185Z,35.5
2018-06-20T03:13:39.208Z,35.5
2018-06-20T03:14:28.687Z,35.5
2018-06-20T03:15:19.340Z,35.5
2018-06-20T03:16:08.597Z,35.5
2018-06-20T03:16:59.152Z,35.5
2018-06-20T03:17:48.950Z,35.5
2018-06-20T03:18:39.340Z,35.5
2018-06-20T03:19:29.368Z,35.5
2018-06-20T03:20:19.952Z,35.5
2018-06-20T03:21:10.082Z,35.4
2018-06-20T03:21:59.279Z,35.4
2018-06-20T03:22:50.143Z,35.4
2018-06-20T03:23:39.951Z,35.4
2018-06-20T03:24:30.340Z,35.4
2018-06-20T03:25:19.642Z,35.4
2018-06-20T03:26:10.149Z,35.4
2018-06-20T03:26:59.634Z,35.4
2018-06-20T03:27:49.420Z,35.4
2018-06-20T03:28:40.067Z,35.4
2018-06-20T03:29:29.880Z,35.4
2018-06-20T03:30:19.153Z,35.4
2018-06-20T03:31:10.091Z,35.4
2018-06-20T03:31:59.939Z,35.4
2018-06-20T03:32:49.333Z,35.4
2018-06-20T03:33:40.469Z,35.4
2018-06-20T03:34:30.047Z,35.4
2018-06-20T03:35:19.854Z,35.4
2018-06-20T03:36:10.690Z,35.4
2018-06-20T03:37:00.429Z,35.4
2018-06-20T03:37:51.041Z,35.4
2018-06-20T03:38:41.373Z,35.4
2018-06-20T03:39:30.353Z,35.4
2018-06-20T03:40:20.928Z,35.4
2018-06-20T03:41:10.766Z,35.4
2018-06-20T03:42:01.064Z,35.4
2018-06-20T03:42:51.514Z,35.4
2018-06-20T03:43:41.484Z,35.4
2018-06-20T03:44:30.429Z,35.4
2018-06-20T03:45:20.762Z,35.4
2018-06-20T03:46:10.272Z,35.4
2018-06-20T03:47:01.182Z,35.4
2018-06-20T03:47:51.230Z,35.4
2018-06-20T03:48:41.584Z,35.4
2018-06-20T03:49:31.864Z,35.5
2018-06-20T03:50:21.667Z,35.5
2018-06-20T03:51:11.486Z,35.5
2018-06-20T03:52:01.848Z,35.5
2018-06-20T03:52:52.451Z,35.5
2018-06-20T03:53:41.688Z,35.5
2018-06-20T03:54:32.312Z,35.5
2018-06-20T03:55:22.073Z,35.4
2018-06-20T03:56:12.751Z,35.4
2018-06-20T03:57:02.517Z,35.5
2018-06-20T03:57:52.603Z,35.4
2018-06-20T03:58:42.069Z,35.4
2018-06-20T03:59:32.653Z,35.4
2018-06-20T04:00:22.476Z,35.4
2018-06-20T04:01:12.273Z,35.4
2018-06-20T04:02:02.611Z,35.4
2018-06-20T04:02:52.647Z,35.4
2018-06-20T04:03:42.468Z,35.4
2018-06-20T04:04:33.122Z,35.4
2018-06-20T04:05:23.113Z,35.4
2018-06-20T04:06:13.548Z,35.4
2018-06-20T04:07:03.247Z,35.4
2018-06-20T04:07:53.329Z,35.4
2018-06-20T04:08:42.852Z,35.4
2018-06-20T04:09:33.750Z,35.4
2018-06-20T04:10:22.697Z,35.4
2018-06-20T04:11:13.342Z,35.4
2018-06-20T04:12:03.606Z,35.4
2018-06-20T04:12:54.619Z,35.4
2018-06-20T04:13:43.729Z,35.4
2018-06-20T04:14:32.712Z,35.4
2018-06-20T04:15:23.907Z,35.4
2018-06-20T04:16:12.833Z,35.4
2018-06-20T04:17:03.461Z,35.4
2018-06-20T04:17:53.224Z,35.4
2018-06-20T04:18:44.162Z,35.4
2018-06-20T04:19:34.174Z,35.4
2018-06-20T04:20:24.240Z,35.4
2018-06-20T04:21:14.608Z,35.4
2018-06-20T04:22:04.388Z,35.4
2018-06-20T04:22:54.758Z,35.4
2018-06-20T04:23:44.810Z,35.4
2018-06-20T04:24:34.569Z,35.4
2018-06-20T04:25:24.069Z,35.4
2018-06-20T04:26:14.785Z,35.4
2018-06-20T04:27:04.503Z,35.4
2018-06-20T04:27:54.851Z,35.4
2018-06-20T04:28:44.619Z,35.4
2018-06-20T04:29:34.935Z,35.4
2018-06-20T04:30:25.060Z,35.4
2018-06-20T04:31:15.111Z,35.3
2018-06-20T04:32:05.448Z,35.4
2018-06-20T04:32:55.475Z,35.3
2018-06-20T04:33:45.558Z,35.3
2018-06-20T04:34:35.512Z,35.3
2018-06-20T04:35:24.193Z,35.3
2018-06-20T04:36:15.189Z,35.3
2018-06-20T04:37:04.941Z,35.3
2018-06-20T04:37:55.820Z,35.3
2018-06-20T04:38:45.395Z,35.3
2018-06-20T04:39:35.436Z,35.3
2018-06-20T04:40:25.769Z,35.3
2018-06-20T04:41:16.081Z,35.3
2018-06-20T04:42:05.610Z,35.3
2018-06-20T04:42:55.664Z,35.2
2018-06-20T04:43:46.266Z,35.2
2018-06-20T04:44:35.842Z,35.2
2018-06-20T04:45:25.894Z,35.2
2018-06-20T04:46:16.219Z,35.2
2018-06-20T04:47:05.729Z,35.2
2018-06-20T04:47:56.107Z,35.2
2018-06-20T04:48:46.492Z,35.2
2018-06-20T04:49:36.211Z,35.2
2018-06-20T04:50:25.742Z,35.1
2018-06-20T04:51:16.372Z,35.1
2018-06-20T04:52:05.865Z,35.1
2018-06-20T04:52:55.349Z,35.1
2018-06-20T04:53:45.964Z,35.1
2018-06-20T04:54:36.597Z,35.1
2018-06-20T04:55:26.372Z,35.1
2018-06-20T04:56:16.452Z,35.1
2018-06-20T04:57:07.352Z,35.1
2018-06-20T04:57:56.876Z,35.1
2018-06-20T04:58:46.431Z,35.1
2018-06-20T04:59:37.247Z,35.1
2018-06-20T05:00:27.602Z,35.1
2018-06-20T05:01:17.657Z,35.1
2018-06-20T05:02:07.160Z,35.1
2018-06-20T05:02:57.203Z,35.1
2018-06-20T05:03:46.859Z,35.1
2018-06-20T05:04:37.131Z,35.1
2018-06-20T05:05:27.489Z,35.1
2018-06-20T05:06:17.241Z,35
2018-06-20T05:07:07.653Z,35
2018-06-20T05:07:57.923Z,35
2018-06-20T05:08:47.697Z,35
2018-06-20T05:09:37.489Z,35
2018-06-20T05:10:27.806Z,35
2018-06-20T05:11:18.133Z,35
2018-06-20T05:12:07.672Z,35
2018-06-20T05:12:57.720Z,35
2018-06-20T05:13:48.660Z,35
2018-06-20T05:14:37.596Z,35
2018-06-20T05:15:28.164Z,35
2018-06-20T05:16:18.495Z,34.9
2018-06-20T05:17:08.584Z,34.9
2018-06-20T05:17:58.655Z,34.9
2018-06-20T05:18:48.465Z,34.9
2018-06-20T05:19:38.766Z,34.9
2018-06-20T05:20:28.589Z,34.9
2018-06-20T05:21:19.213Z,34.9
2018-06-20T05:22:08.671Z,34.9
2018-06-20T05:22:58.488Z,34.9
2018-06-20T05:23:48.865Z,34.9
2018-06-20T05:24:38.668Z,34.9
2018-06-20T05:25:29.236Z,34.9
2018-06-20T05:26:19.140Z,34.9
2018-06-20T05:27:08.881Z,34.9
2018-06-20T05:27:58.957Z,34.9
2018-06-20T05:28:49.235Z,34.9
2018-06-20T05:29:39.570Z,34.9
2018-06-20T05:30:29.854Z,34.9
2018-06-20T05:31:19.420Z,34.9
2018-06-20T05:32:09.745Z,34.9
2018-06-20T05:33:00.243Z,34.9
2018-06-20T05:33:50.132Z,34.9
2018-06-20T05:34:39.922Z,34.9
2018-06-20T05:35:29.977Z,34.9
2018-06-20T05:36:20.064Z,34.9
2018-06-20T05:37:10.085Z,34.9
2018-06-20T05:37:59.896Z,34.9
2018-06-20T05:38:50.267Z,34.6
2018-06-20T05:39:40.329Z,27.8
2018-06-20T05:40:29.809Z,31.8
2018-06-20T05:41:20.151Z,34.6
2018-06-20T05:42:10.502Z,34.4
2018-06-20T05:43:00.856Z,33.8
2018-06-20T05:43:50.614Z,33.5
2018-06-20T05:44:41.031Z,33.3
2018-06-20T05:45:29.913Z,33.1
2018-06-20T05:46:19.688Z,33
2018-06-20T05:47:10.698Z,32.9
2018-06-20T05:48:00.113Z,32.9
2018-06-20T05:48:51.023Z,32.9
2018-06-20T05:49:40.496Z,33
2018-06-20T05:50:30.850Z,33.1
2018-06-20T05:51:21.515Z,33.2
2018-06-20T05:52:11.036Z,33.3
2018-06-20T05:53:01.056Z,33.4
2018-06-20T05:53:51.974Z,33.5
2018-06-20T05:54:41.178Z,33.6
2018-06-20T05:55:31.805Z,33.6
2018-06-20T05:56:21.583Z,33.8
2018-06-20T05:57:11.675Z,33.8
2018-06-20T05:58:02.025Z,33.9
2018-06-20T05:58:51.609Z,34
2018-06-20T05:59:41.553Z,34.1
2018-06-20T06:00:32.161Z,34.1
2018-06-20T06:01:21.969Z,34.2
2018-06-20T06:02:11.746Z,32.5
2018-06-20T06:03:02.118Z,33.3
2018-06-20T06:03:51.322Z,35.6
2018-06-20T06:04:42.499Z,36
2018-06-20T06:05:31.757Z,35.4
2018-06-20T06:06:22.371Z,34.8
2018-06-20T06:07:12.151Z,34.5
2018-06-20T06:08:02.181Z,34.5
2018-06-20T06:08:51.974Z,34.8
2018-06-20T06:09:41.786Z,35.1
2018-06-20T06:11:22.028Z,35.4
2018-06-20T06:12:12.320Z,35.6
2018-06-20T06:13:02.121Z,36.1
2018-06-20T06:13:52.405Z,36.6
2018-06-20T06:14:42.278Z,36.8
2018-06-20T06:15:31.445Z,36.8
2018-06-20T06:16:22.385Z,36.7
2018-06-20T06:17:13.410Z,36.7
2018-06-20T06:18:02.194Z,37
2018-06-20T06:18:52.840Z,37.4
2018-06-20T06:19:42.892Z,37.8
2018-06-20T06:20:32.897Z,37.7
2018-06-20T06:21:22.980Z,37.5
2018-06-20T06:22:12.788Z,37.4
2018-06-20T06:23:02.270Z,37.3
2018-06-20T06:23:52.376Z,37.4
2018-06-20T06:24:43.247Z,37.7
2018-06-20T06:25:33.366Z,37.9
2018-06-20T06:26:23.391Z,38
2018-06-20T06:27:12.876Z,38.1
2018-06-20T06:28:03.217Z,38.1
2018-06-20T06:28:53.338Z,38
2018-06-20T06:29:43.621Z,37.9
2018-06-20T06:30:33.676Z,38
2018-06-20T06:31:23.518Z,38.1
2018-06-20T06:32:13.271Z,38.3
2018-06-20T06:33:03.349Z,38.4
2018-06-20T06:33:53.675Z,38.3
2018-06-20T06:34:43.743Z,38.2
2018-06-20T06:35:33.828Z,38.1
2018-06-20T06:36:23.637Z,38.1
2018-06-20T06:37:13.643Z,38.1
2018-06-20T06:38:04.042Z,38.1
2018-06-20T06:38:54.068Z,38.1
2018-06-20T06:39:44.510Z,38.1
2018-06-20T06:40:34.212Z,38.1
2018-06-20T06:41:24.293Z,38.1
2018-06-20T06:42:14.072Z,38.3
2018-06-20T06:43:04.634Z,38.4
2018-06-20T06:43:54.095Z,38.6
2018-06-20T06:44:44.566Z,38.7
2018-06-20T06:45:34.917Z,38.8
2018-06-20T06:46:24.710Z,38.9
2018-06-20T06:47:14.441Z,38.9
2018-06-20T06:48:04.799Z,39
2018-06-20T06:48:55.109Z,39.3
2018-06-20T06:49:46.358Z,39.4
2018-06-20T06:50:34.674Z,39.4
2018-06-20T06:51:24.712Z,39.5
2018-06-20T06:52:15.367Z,39.8
2018-06-20T06:53:05.414Z,40.5
2018-06-20T06:53:55.472Z,41.2
2018-06-20T06:54:44.712Z,41.7
2018-06-20T06:55:35.346Z,42
2018-06-20T06:56:25.478Z,42.3
2018-06-20T06:57:15.755Z,42.4
2018-06-20T06:58:05.625Z,42.6
2018-06-20T06:58:55.874Z,42.8
2018-06-20T06:59:45.462Z,42.5
2018-06-20T07:00:35.748Z,42.3
2018-06-20T07:01:25.784Z,42.4
2018-06-20T07:02:16.129Z,42.9
2018-06-20T07:03:05.974Z,43.4
2018-06-20T07:03:56.083Z,43.6
2018-06-20T07:04:45.516Z,43.8
2018-06-20T07:05:35.418Z,43.9
2018-06-20T07:06:25.722Z,44
2018-06-20T07:07:15.758Z,44.2
2018-06-20T07:08:05.544Z,44.4
2018-06-20T07:08:55.310Z,44.7
2018-06-20T07:09:45.984Z,44.9
2018-06-20T07:10:36.115Z,45.1
2018-06-20T07:11:25.825Z,45.2
2018-06-20T07:12:16.202Z,45.3
2018-06-20T07:13:05.927Z,45.4
2018-06-20T07:13:55.997Z,45.6
2018-06-20T07:14:45.514Z,45.7
2018-06-20T07:15:37.627Z,45.8
2018-06-20T07:16:26.793Z,45.9
2018-06-20T07:17:16.738Z,46.1
2018-06-20T07:18:07.106Z,46.2
2018-06-20T07:18:57.157Z,46.3
2018-06-20T07:19:47.047Z,46.4
2018-06-20T07:20:36.871Z,46.5
2018-06-20T07:21:27.663Z,46.6
2018-06-20T07:22:17.425Z,46.8
2018-06-20T07:23:07.518Z,46.9
2018-06-20T07:23:57.543Z,47
2018-06-20T07:24:47.641Z,47.1
2018-06-20T07:25:38.056Z,47.3
2018-06-20T07:26:27.470Z,47.4
2018-06-20T07:27:17.283Z,47.5
2018-06-20T07:28:07.572Z,47.6
2018-06-20T07:28:57.988Z,47.8
2018-06-20T07:29:47.814Z,48
2018-06-20T07:30:37.530Z,48.1
2018-06-20T07:31:27.116Z,48.3
2018-06-20T07:32:18.213Z,48.4
2018-06-20T07:33:08.599Z,48.5
2018-06-20T07:33:58.338Z,48.7
2018-06-20T07:34:47.585Z,48.8
2018-06-20T07:35:41.041Z,48.9
2018-06-20T07:36:28.988Z,49.1
2018-06-20T07:37:17.813Z,49.2
2018-06-20T07:38:08.923Z,49.3
2018-06-20T07:38:59.009Z,49.5
2018-06-20T07:39:48.575Z,49.6
2018-06-20T07:40:38.275Z,49.8
2018-06-20T07:41:28.858Z,49.9
2018-06-20T07:42:18.934Z,50
2018-06-20T07:43:09.007Z,50.1
2018-06-20T07:43:58.852Z,50.3
2018-06-20T07:44:48.297Z,50.4
2018-06-20T07:45:38.915Z,50.6
2018-06-20T07:46:29.520Z,50.7
2018-06-20T07:47:19.589Z,50.8
2018-06-20T07:48:08.840Z,50.9
2018-06-20T07:48:59.165Z,51.1
2018-06-20T07:49:49.768Z,51.3
2018-06-20T07:50:39.632Z,51.4
2018-06-20T07:51:28.853Z,51.6
2018-06-20T07:52:18.997Z,51.7
2018-06-20T07:53:09.496Z,51.8
2018-06-20T07:54:49.662Z,52.1
2018-06-20T07:55:40.271Z,52.3
2018-06-20T07:56:30.023Z,52.4
2018-06-20T07:57:19.290Z,52.6
2018-06-20T07:58:10.466Z,52.7
2018-06-20T07:58:59.681Z,52.8
2018-06-20T07:59:50.287Z,52.9
2018-06-20T08:00:41.202Z,53.1
2018-06-20T08:01:29.902Z,53.2
2018-06-20T08:02:20.816Z,53.3
2018-06-20T08:03:10.739Z,53.4
2018-06-20T08:04:00.917Z,53.6
2018-06-20T08:04:51.060Z,53.7
2018-06-20T08:05:41.058Z,53.8
2018-06-20T08:06:31.664Z,53.9
2018-06-20T08:07:20.073Z,54
2018-06-20T08:08:11.298Z,54.2
2018-06-20T08:09:00.736Z,54.3
2018-06-20T08:09:51.163Z,54.4
2018-06-20T08:10:40.607Z,54.6
2018-06-20T08:11:30.744Z,54.6
2018-06-20T08:12:21.505Z,54.8
2018-06-20T08:13:11.058Z,54.9
2018-06-20T08:14:01.435Z,55.1
2018-06-20T08:14:50.509Z,55.2
2018-06-20T08:15:41.252Z,55.3
2018-06-20T08:16:31.839Z,55.4
2018-06-20T08:17:21.730Z,55.6
2018-06-20T08:18:11.159Z,55.7
2018-06-20T08:19:01.297Z,55.8
2018-06-20T08:19:51.867Z,55.9
2018-06-20T08:20:41.375Z,56
2018-06-20T08:21:31.256Z,56.1
2018-06-20T08:22:21.387Z,56.2
2018-06-20T08:23:12.361Z,56.3
2018-06-20T08:24:02.444Z,56.4
2018-06-20T08:24:51.919Z,56.5
2018-06-20T08:25:42.965Z,56.6
2018-06-20T08:26:32.600Z,56.7
2018-06-20T08:27:22.386Z,56.8
2018-06-20T08:28:11.146Z,56.9
2018-06-20T08:29:02.541Z,56.9
2018-06-20T08:29:52.876Z,57.1
2018-06-20T08:30:42.351Z,57.1
2018-06-20T08:31:32.166Z,57.3
2018-06-20T08:32:23.132Z,57.4
2018-06-20T08:33:12.863Z,57.4
2018-06-20T08:34:02.789Z,57.5
2018-06-20T08:34:52.485Z,57.6
2018-06-20T08:35:43.305Z,57.7
2018-06-20T08:36:32.860Z,57.8
2018-06-20T08:37:22.891Z,57.9
2018-06-20T08:38:13.237Z,58
2018-06-20T08:39:03.636Z,58.1
2018-06-20T08:39:53.648Z,58.1
2018-06-20T08:40:43.193Z,58.2
2018-06-20T08:41:33.777Z,58.2
2018-06-20T08:42:24.244Z,58.3
2018-06-20T08:43:13.931Z,58.4
2018-06-20T08:44:03.437Z,58.4
2018-06-20T08:44:52.969Z,58.5
2018-06-20T08:45:43.813Z,58.6
2018-06-20T08:46:33.893Z,58.7
2018-06-20T08:47:23.665Z,58.8
2018-06-20T08:48:14.048Z,58.8
2018-06-20T08:49:03.815Z,58.9
2018-06-20T08:49:54.474Z,59
2018-06-20T08:50:44.225Z,59.1
2018-06-20T08:51:34.588Z,59.1
2018-06-20T08:52:24.686Z,59.3
2018-06-20T08:53:14.717Z,59.3
2018-06-20T08:54:04.207Z,59.4
2018-06-20T08:54:54.566Z,59.4
2018-06-20T08:55:44.976Z,59.6
2018-06-20T08:56:34.719Z,59.6
2018-06-20T08:57:24.777Z,59.7
2018-06-20T08:58:14.549Z,59.8
2018-06-20T08:59:04.579Z,59.9
2018-06-20T08:59:54.477Z,59.9
2018-06-20T09:00:45.239Z,60.1
2018-06-20T09:01:35.093Z,60.1
2018-06-20T09:02:25.417Z,60.2
2018-06-20T09:03:15.154Z,60.3
2018-06-20T09:04:05.310Z,60.4
2018-06-20T09:04:54.546Z,60.4
2018-06-20T09:05:45.358Z,60.6
2018-06-20T09:06:35.711Z,60.6
2018-06-20T09:07:25.519Z,60.8
2018-06-20T09:08:15.545Z,60.8
2018-06-20T09:09:05.721Z,60.8
2018-06-20T09:09:55.724Z,60.8
2018-06-20T09:10:45.770Z,60.9
2018-06-20T09:11:36.101Z,60.9
2018-06-20T09:12:25.580Z,61.1
2018-06-20T09:13:16.266Z,61.1
2018-06-20T09:14:06.024Z,60.6
2018-06-20T09:14:56.343Z,59.4
2018-06-20T09:15:45.867Z,58.7
2018-06-20T09:16:36.237Z,58.4
2018-06-20T09:17:26.057Z,58.4
2018-06-20T09:18:16.171Z,58.9
2018-06-20T09:19:06.460Z,59.8
2018-06-20T09:19:55.802Z,60.3
2018-06-20T09:20:46.622Z,60.6
2018-06-20T09:21:36.363Z,60.8
2018-06-20T09:22:25.850Z,60.9
2018-06-20T09:23:17.022Z,61
2018-06-20T09:24:06.315Z,61.2
2018-06-20T09:24:56.881Z,61.4
2018-06-20T09:25:46.913Z,61.4
2018-06-20T09:26:36.758Z,61
2018-06-20T09:27:26.037Z,60.9
2018-06-20T09:28:16.678Z,60.6
2018-06-20T09:29:06.925Z,60.4
2018-06-20T09:29:57.522Z,60.4
2018-06-20T09:30:47.329Z,60.8
2018-06-20T09:31:36.849Z,61.2
2018-06-20T09:32:26.972Z,61.6
2018-06-20T09:33:17.255Z,61.8
2018-06-20T09:34:07.286Z,61.9
2018-06-20T09:34:57.353Z,62.1
2018-06-20T09:35:47.454Z,62.2
2018-06-20T09:36:37.804Z,62.4
2018-06-20T09:37:28.157Z,62.6
2018-06-20T09:38:18.176Z,62.7
2018-06-20T09:39:07.234Z,62.8
2018-06-20T09:39:57.761Z,62.9
2018-06-20T09:40:47.858Z,63.1
2018-06-20T09:41:38.250Z,63.2
2018-06-20T09:42:28.579Z,63.3
2018-06-20T09:43:18.003Z,63.4
2018-06-20T09:44:08.369Z,63.6
2018-06-20T09:44:57.957Z,63.7
2018-06-20T09:45:48.254Z,63.8
2018-06-20T09:46:37.744Z,63.9
2018-06-20T09:47:28.691Z,64
2018-06-20T09:48:18.948Z,64.1
2018-06-20T09:49:08.746Z,64.2
2018-06-20T09:49:59.088Z,64.3
2018-06-20T09:50:48.908Z,64.3
2018-06-20T09:51:38.952Z,64.1
2018-06-20T09:52:29.266Z,63.1
2018-06-20T09:53:19.356Z,61.6
2018-06-20T09:54:09.151Z,60.4
2018-06-20T09:54:59.254Z,59.5
2018-06-20T09:55:49.284Z,59.1
2018-06-20T09:56:39.491Z,58.8
2018-06-20T09:58:18.497Z,58.4
2018-06-20T09:59:09.373Z,58.3
2018-06-20T09:59:59.655Z,58.7
2018-06-20T10:00:48.961Z,59.7
2018-06-20T10:01:40.976Z,60.5
2018-06-20T10:02:30.125Z,60.7
2018-06-20T10:03:19.895Z,60.8
2018-06-20T10:04:09.756Z,61.2
2018-06-20T10:05:00.046Z,61.4
2018-06-20T10:05:50.384Z,60.8
2018-06-20T10:06:40.000Z,60.5
2018-06-20T10:07:30.221Z,61.1
2018-06-20T10:08:20.358Z,62
2018-06-20T10:09:10.672Z,62.8
2018-06-20T10:10:00.412Z,62.8
2018-06-20T10:10:48.613Z,61.9
2018-06-20T10:11:40.300Z,61.6
2018-06-20T10:12:30.600Z,62
2018-06-20T10:13:21.428Z,62.8
2018-06-20T10:14:10.477Z,63.4
2018-06-20T10:15:00.222Z,63.8
2018-06-20T10:15:50.578Z,63.9
2018-06-20T10:16:41.284Z,64
2018-06-20T10:17:30.820Z,64.1
2018-06-20T10:18:20.493Z,64.1
2018-06-20T10:19:11.408Z,64.2
2018-06-20T10:20:00.654Z,64.2
2018-06-20T10:20:51.284Z,63.6
2018-06-20T10:21:41.138Z,63
2018-06-20T10:22:30.822Z,63.1
2018-06-20T10:23:20.631Z,63.6
2018-06-20T10:24:11.519Z,64.1
2018-06-20T10:25:01.536Z,64.3
2018-06-20T10:25:51.087Z,64.4
2018-06-20T10:26:41.146Z,64.4
2018-06-20T10:27:31.202Z,64.5
2018-06-20T10:28:21.806Z,64.6
2018-06-20T10:29:11.959Z,64.7
2018-06-20T10:30:01.549Z,64.9
2018-06-20T10:30:51.781Z,64.9
2018-06-20T10:31:42.104Z,65
2018-06-20T10:32:32.473Z,65.1
2018-06-20T10:33:22.288Z,65.3
2018-06-20T10:34:13.019Z,65.3
2018-06-20T10:35:02.419Z,65.2
2018-06-20T10:35:52.127Z,64.9
2018-06-20T10:36:42.176Z,64.4
2018-06-20T10:37:32.296Z,64.2
2018-06-20T10:38:22.931Z,64.4
2018-06-20T10:39:12.665Z,64.9
2018-06-20T10:40:02.893Z,65.1
2018-06-20T10:40:52.517Z,65.2
2018-06-20T10:41:42.873Z,65.3
2018-06-20T10:42:32.670Z,65.3
2018-06-20T10:43:23.025Z,65.3
2018-06-20T10:44:12.486Z,65.1
2018-06-20T10:45:03.187Z,65.2
2018-06-20T10:45:52.607Z,65.3
2018-06-20T10:46:43.245Z,65.3
2018-06-20T10:47:33.633Z,65.4
2018-06-20T10:48:22.518Z,65.4
2018-06-20T10:49:13.183Z,65.4
2018-06-20T10:50:03.230Z,65.5
2018-06-20T10:50:53.013Z,65.6
2018-06-20T10:51:44.093Z,65.7
2018-06-20T10:52:33.100Z,65.8
2018-06-20T10:53:23.222Z,65.4
2018-06-20T10:54:13.581Z,64.8
2018-06-20T10:55:03.124Z,64.1
2018-06-20T10:55:53.781Z,64.2
2018-06-20T10:56:44.289Z,64.6
2018-06-20T10:57:34.120Z,64.5
2018-06-20T10:58:23.979Z,63.8
2018-06-20T10:59:14.002Z,62.9
2018-06-20T11:00:04.016Z,62.1
2018-06-20T11:00:54.621Z,62
2018-06-20T11:01:43.861Z,62.6
2018-06-20T11:02:34.218Z,63.6
2018-06-20T11:03:24.632Z,64.5
2018-06-20T11:04:14.866Z,64.6
2018-06-20T11:05:04.411Z,64.6
2018-06-20T11:05:54.173Z,64.6
2018-06-20T11:06:45.139Z,64.9
2018-06-20T11:07:34.534Z,65.2
2018-06-20T11:08:24.965Z,65.4
2018-06-20T11:09:15.318Z,65.6
2018-06-20T11:10:05.025Z,65.7
2018-06-20T11:10:54.343Z,65.8